Kezdőlap
METAR-TAF:

METAR-TAF

Repülőterek :

Keene, New Hampshire, Amerikai Egyesült Államok

földrajzi szélesség: 42-54N, földrajzi hosszúság: 072-16W, magasság: 149 m

Jelenlegi meteorológiai megfigyelések

A jelentés 36 perccel ezelõtt készült, 17:56 UTC
Déli szél 4 kt
Hőmérséklet 8°C
Páratartalom 39%
Légköri nyomás 1018 hPa
Látótávolság: 16.1 km
Derült ég

METAR: KEEN 231756Z AUTO 19004KT 10SM CLR 08/M05 A3007 RMK AO2 SLP192 60000 T00781050 10078 21094 58023 $

Idő: 13:32 (18:32 UTC)


TAF: hiányzik

Meteorológiai megfigyelések és előrejelzések több, mint 4000 repülőtéren (METAR és TAF jelentéseket).

A térképen piros és sárga pontok jelzik az elérhető meteorológiai állomásokat.

Mozgassa az egeret a pont fölött, hogy megjelenjen az állomás neve.

Azután kattintson az időjárási megfigyelések és előrejelzések megtekintéséhez.

A térkép megváltoztatása: kattintson a fekete keresztel jelölt zöld gombra ráközelítéshez, a vonallal jelölt zöld gombra távolításhoz, vagy a zöld nyilakra a szomszédos térképek eléréséhez.


METAR-TAF: